createdAt,value
2022-12-08T00:02:03.482Z,14.70
2022-12-08T00:04:52.513Z,14.70
2022-12-08T00:07:39.732Z,14.70
2022-12-08T00:10:32.300Z,14.70
2022-12-08T00:12:57.817Z,14.70
2022-12-08T00:15:26.109Z,14.70
2022-12-08T00:17:54.562Z,14.70
2022-12-08T00:20:22.854Z,14.60
2022-12-08T00:22:52.496Z,14.70
2022-12-08T00:25:20.796Z,14.70
2022-12-08T00:27:49.069Z,14.70
2022-12-08T00:30:17.663Z,14.70
2022-12-08T00:32:46.081Z,14.70
2022-12-08T00:35:14.413Z,14.70
2022-12-08T00:37:42.781Z,14.60
2022-12-08T00:40:12.827Z,14.60
2022-12-08T00:42:41.141Z,14.60
2022-12-08T00:45:10.002Z,14.60
2022-12-08T00:47:38.254Z,14.60
2022-12-08T00:50:08.629Z,14.60
2022-12-08T00:52:37.104Z,14.60
2022-12-08T00:55:06.590Z,14.60
2022-12-08T00:57:36.289Z,14.60
2022-12-08T01:00:06.087Z,14.60
2022-12-08T01:02:34.721Z,14.60
2022-12-08T01:05:03.120Z,14.60
2022-12-08T01:07:31.345Z,14.60
2022-12-08T01:09:59.608Z,14.60
2022-12-08T01:12:29.881Z,14.60
2022-12-08T01:15:02.548Z,14.60
2022-12-08T01:17:31.251Z,14.60
2022-12-08T01:19:59.657Z,14.60
2022-12-08T01:22:27.879Z,14.60
2022-12-08T01:24:56.195Z,14.60
2022-12-08T01:27:24.531Z,14.60
2022-12-08T01:29:52.814Z,14.60
2022-12-08T01:32:22.527Z,14.60
2022-12-08T01:34:50.764Z,14.50
2022-12-08T01:37:19.166Z,14.60
2022-12-08T01:39:47.391Z,14.60
2022-12-08T01:42:25.944Z,14.60
2022-12-08T01:45:01.361Z,14.60
2022-12-08T01:47:37.546Z,14.60
2022-12-08T01:50:09.903Z,14.50
2022-12-08T01:52:41.988Z,14.50
2022-12-08T01:55:15.892Z,14.50
2022-12-08T01:57:48.046Z,14.50
2022-12-08T02:00:18.673Z,14.50
2022-12-08T02:02:55.572Z,14.50
2022-12-08T02:05:28.377Z,14.50
2022-12-08T02:07:58.467Z,14.50
2022-12-08T02:10:31.543Z,14.50
2022-12-08T02:13:01.573Z,14.50
2022-12-08T02:15:37.143Z,14.50
2022-12-08T02:18:18.397Z,14.40
2022-12-08T02:20:54.753Z,14.40
2022-12-08T02:23:33.236Z,14.40
2022-12-08T02:26:36.160Z,14.50
2022-12-08T02:29:34.347Z,14.40
2022-12-08T02:32:29.064Z,14.40
2022-12-08T02:35:05.244Z,14.40
2022-12-08T02:37:37.305Z,14.40
2022-12-08T02:40:14.686Z,14.40
2022-12-08T02:42:47.272Z,14.40
2022-12-08T02:45:20.416Z,14.40
2022-12-08T02:47:49.505Z,14.40
2022-12-08T02:50:20.345Z,14.40
2022-12-08T02:52:49.808Z,14.40
2022-12-08T02:55:26.927Z,14.30
2022-12-08T02:58:17.296Z,14.40
2022-12-08T03:01:00.105Z,14.30
2022-12-08T03:03:36.938Z,14.40
2022-12-08T03:06:19.045Z,14.30
2022-12-08T03:08:56.278Z,14.30
2022-12-08T03:11:29.977Z,14.30
2022-12-08T03:14:02.543Z,14.30
2022-12-08T03:16:34.014Z,14.30
2022-12-08T03:19:07.393Z,14.30
2022-12-08T03:21:38.877Z,14.40
2022-12-08T03:24:10.098Z,14.30
2022-12-08T03:26:47.153Z,14.30
2022-12-08T03:29:16.065Z,14.30
2022-12-08T03:31:50.982Z,14.30
2022-12-08T03:34:21.272Z,14.30
2022-12-08T03:36:51.288Z,14.30
2022-12-08T03:39:19.550Z,14.30
2022-12-08T03:41:48.396Z,14.30
2022-12-08T03:44:16.635Z,14.30
2022-12-08T03:46:45.913Z,14.30
2022-12-08T03:49:14.135Z,14.30
2022-12-08T03:51:42.459Z,14.30
2022-12-08T03:54:12.167Z,14.30
2022-12-08T03:56:40.963Z,14.30
2022-12-08T03:59:09.520Z,14.30
2022-12-08T04:01:37.934Z,14.30
2022-12-08T04:04:06.461Z,14.30
2022-12-08T04:06:34.723Z,14.30
2022-12-08T04:09:03.053Z,14.30
2022-12-08T04:11:32.808Z,14.30
2022-12-08T04:14:01.090Z,14.30
2022-12-08T04:16:29.495Z,14.30
2022-12-08T04:18:57.914Z,14.30
2022-12-08T04:21:26.170Z,14.30
2022-12-08T04:24:00.756Z,14.30
2022-12-08T04:26:29.870Z,14.20
2022-12-08T04:28:59.579Z,14.30
2022-12-08T04:31:27.957Z,14.20
2022-12-08T04:33:56.301Z,14.20
2022-12-08T04:36:24.556Z,14.20
2022-12-08T04:38:52.896Z,14.20
2022-12-08T04:41:21.201Z,14.20
2022-12-08T04:43:49.650Z,14.20
2022-12-08T04:46:19.417Z,14.20
2022-12-08T04:48:47.734Z,14.20
2022-12-08T04:51:20.393Z,14.10
2022-12-08T04:53:49.441Z,14.20
2022-12-08T04:56:19.886Z,14.10
2022-12-08T04:58:48.272Z,14.10
2022-12-08T05:01:16.666Z,14.20
2022-12-08T05:03:46.363Z,14.10
2022-12-08T05:06:15.497Z,14.10
2022-12-08T05:08:43.937Z,14.10
2022-12-08T05:11:14.240Z,14.10
2022-12-08T05:13:42.717Z,14.10
2022-12-08T05:16:12.651Z,14.10
2022-12-08T05:18:42.087Z,14.10
2022-12-08T05:21:12.143Z,14.00
2022-12-08T05:23:40.525Z,14.10
2022-12-08T05:26:08.853Z,14.00
2022-12-08T05:28:41.746Z,14.00
2022-12-08T05:31:11.217Z,14.00
2022-12-08T05:33:39.579Z,14.00
2022-12-08T05:36:08.597Z,14.00
2022-12-08T05:38:38.384Z,14.00
2022-12-08T05:41:07.851Z,14.00
2022-12-08T05:43:36.373Z,13.90
2022-12-08T05:46:04.781Z,13.90
2022-12-08T05:48:33.598Z,14.00
2022-12-08T05:51:02.020Z,13.90
2022-12-08T05:53:30.306Z,13.90
2022-12-08T05:55:59.964Z,13.90
2022-12-08T05:58:28.410Z,13.90
2022-12-08T06:00:56.705Z,13.80
2022-12-08T06:03:25.137Z,13.80
2022-12-08T06:05:53.482Z,13.80
2022-12-08T06:08:21.855Z,13.80
2022-12-08T06:10:50.308Z,13.80
2022-12-08T06:13:20.078Z,13.80
2022-12-08T06:15:48.382Z,13.70
2022-12-08T06:18:16.781Z,13.80
2022-12-08T06:20:45.064Z,13.80
2022-12-08T06:23:13.378Z,13.70
2022-12-08T06:25:41.699Z,13.80
2022-12-08T06:28:10.043Z,13.70
2022-12-08T06:30:40.728Z,13.80
2022-12-08T06:33:09.016Z,13.80
2022-12-08T06:35:38.207Z,13.80
2022-12-08T06:38:06.660Z,13.80
2022-12-08T06:40:34.931Z,13.80
2022-12-08T06:43:03.252Z,13.80
2022-12-08T06:45:31.638Z,13.80
2022-12-08T06:48:02.946Z,13.80
2022-12-08T06:50:32.673Z,13.80
2022-12-08T06:53:05.074Z,13.80
2022-12-08T06:58:22.833Z,13.80
2022-12-08T07:00:51.325Z,13.80
2022-12-08T07:03:21.097Z,13.70
2022-12-08T07:05:49.366Z,13.70
2022-12-08T07:08:17.760Z,13.70
2022-12-08T07:10:46.027Z,13.70
2022-12-08T07:13:14.337Z,13.70
2022-12-08T07:15:42.655Z,13.70
2022-12-08T07:18:11.004Z,13.70
2022-12-08T07:20:40.745Z,13.60
2022-12-08T07:23:09.191Z,13.60
2022-12-08T07:25:37.447Z,13.70
2022-12-08T07:28:10.503Z,13.60
2022-12-08T07:30:39.076Z,13.70
2022-12-08T07:33:07.512Z,13.70
2022-12-08T07:35:35.750Z,13.60
2022-12-08T07:38:05.395Z,13.70
2022-12-08T07:40:33.690Z,13.70
2022-12-08T07:43:01.946Z,13.70
2022-12-08T07:45:31.897Z,13.70
2022-12-08T07:48:00.462Z,13.70
2022-12-08T07:50:28.781Z,13.70
2022-12-08T07:52:57.027Z,13.70
2022-12-08T07:55:27.019Z,13.70
2022-12-08T07:57:55.505Z,13.70
2022-12-08T08:00:23.986Z,13.80
2022-12-08T08:02:52.336Z,13.80
2022-12-08T08:05:21.432Z,13.80
2022-12-08T08:07:49.890Z,13.90
2022-12-08T08:10:18.944Z,13.90
2022-12-08T08:12:48.842Z,13.90
2022-12-08T08:15:18.206Z,13.90
2022-12-08T08:17:46.495Z,13.90
2022-12-08T08:20:15.948Z,14.00
2022-12-08T08:22:44.362Z,14.00
2022-12-08T08:25:12.681Z,14.00
2022-12-08T08:27:41.326Z,14.00
2022-12-08T08:30:19.660Z,14.00
2022-12-08T08:32:48.892Z,14.00
2022-12-08T08:35:17.717Z,14.00
2022-12-08T08:37:49.143Z,14.00
2022-12-08T08:40:18.357Z,14.00
2022-12-08T08:42:46.591Z,14.00
2022-12-08T08:45:16.578Z,14.10
2022-12-08T08:47:45.047Z,14.00
2022-12-08T08:50:13.442Z,14.10
2022-12-08T08:52:41.772Z,14.10
2022-12-08T08:55:10.563Z,14.10
2022-12-08T08:57:38.902Z,14.10
2022-12-08T09:00:10.190Z,14.10
2022-12-08T09:02:40.319Z,14.10
2022-12-08T09:05:09.267Z,14.10
2022-12-08T09:07:37.902Z,14.20
2022-12-08T09:10:08.157Z,14.20
2022-12-08T09:12:36.830Z,14.20
2022-12-08T09:15:05.764Z,14.20
2022-12-08T09:17:34.078Z,14.20
2022-12-08T09:20:04.100Z,14.20
2022-12-08T09:22:32.571Z,14.20
2022-12-08T09:25:00.898Z,14.20
2022-12-08T09:27:29.159Z,14.20
2022-12-08T09:29:57.421Z,14.20
2022-12-08T09:32:25.732Z,14.30
2022-12-08T09:34:55.430Z,14.30
2022-12-08T09:37:25.158Z,14.30
2022-12-08T09:39:53.456Z,14.30
2022-12-08T09:42:33.717Z,14.30
2022-12-08T09:45:07.141Z,14.30
2022-12-08T09:47:41.248Z,14.30
2022-12-08T09:50:15.596Z,14.30
2022-12-08T09:52:50.535Z,14.30
2022-12-08T09:55:24.363Z,14.30
2022-12-08T09:58:01.405Z,14.40
2022-12-08T10:00:29.744Z,14.40
2022-12-08T10:02:58.173Z,14.50
2022-12-08T10:05:29.471Z,14.60
2022-12-08T10:08:09.575Z,14.60
2022-12-08T10:10:43.166Z,14.70
2022-12-08T10:13:21.742Z,14.70
2022-12-08T10:15:59.793Z,14.70
2022-12-08T10:18:30.685Z,14.80
2022-12-08T10:21:12.701Z,14.90
2022-12-08T10:23:45.662Z,14.90
2022-12-08T10:26:16.753Z,15.00
2022-12-08T10:28:45.848Z,15.00
2022-12-08T10:31:19.966Z,15.00
2022-12-08T10:33:50.560Z,15.00
2022-12-08T10:36:18.914Z,15.00
2022-12-08T10:38:48.576Z,15.00
2022-12-08T10:41:18.331Z,15.10
2022-12-08T10:43:50.717Z,15.10
2022-12-08T10:46:22.249Z,15.10
2022-12-08T10:48:53.157Z,15.10
2022-12-08T10:51:28.335Z,15.10
2022-12-08T10:53:58.597Z,15.10
2022-12-08T10:56:29.469Z,15.10
2022-12-08T10:59:14.201Z,15.10
2022-12-08T11:01:46.523Z,15.10
2022-12-08T11:04:18.437Z,15.10
2022-12-08T11:06:47.767Z,15.10
2022-12-08T11:09:40.064Z,15.10
2022-12-08T11:12:10.540Z,15.20
2022-12-08T11:14:49.863Z,15.30
2022-12-08T11:17:24.868Z,15.30
2022-12-08T11:19:58.719Z,15.40
2022-12-08T11:22:30.992Z,15.40
2022-12-08T11:25:04.516Z,15.50
2022-12-08T11:27:35.139Z,15.50
2022-12-08T11:30:09.692Z,15.50
2022-12-08T11:32:44.716Z,15.50
2022-12-08T11:35:21.945Z,15.60
2022-12-08T11:37:50.492Z,15.70
2022-12-08T11:40:24.446Z,15.70
2022-12-08T11:43:02.018Z,15.80
2022-12-08T11:45:34.858Z,15.80
2022-12-08T11:48:11.157Z,15.90
2022-12-08T11:50:45.202Z,16.00
2022-12-08T11:53:23.685Z,16.00
2022-12-08T11:55:58.561Z,16.10
2022-12-08T11:58:36.175Z,16.10
2022-12-08T12:01:04.536Z,16.00
2022-12-08T12:03:37.342Z,16.00
2022-12-08T12:06:55.075Z,15.90
2022-12-08T12:09:34.421Z,16.00
2022-12-08T12:12:19.671Z,16.00
2022-12-08T12:15:30.128Z,16.00
2022-12-08T12:18:03.301Z,16.00
2022-12-08T12:20:35.530Z,16.10
2022-12-08T12:23:07.118Z,16.10
2022-12-08T12:25:36.953Z,16.20
2022-12-08T12:28:09.341Z,16.20
2022-12-08T12:30:54.631Z,16.10
2022-12-08T12:33:24.421Z,16.10
2022-12-08T12:35:53.772Z,16.10
2022-12-08T12:38:44.277Z,16.10
2022-12-08T12:41:14.409Z,16.10
2022-12-08T12:44:30.932Z,16.10
2022-12-08T12:47:01.112Z,16.00
2022-12-08T12:49:52.349Z,16.00
2022-12-08T12:52:39.402Z,15.90
2022-12-08T12:55:29.030Z,15.90
2022-12-08T12:57:58.841Z,15.90
2022-12-08T13:00:29.345Z,15.90
2022-12-08T13:02:59.002Z,15.90
2022-12-08T13:05:30.083Z,15.90
2022-12-08T13:08:00.436Z,15.90
2022-12-08T13:10:32.497Z,15.80
2022-12-08T13:13:16.492Z,15.90
2022-12-08T13:15:52.928Z,15.90
2022-12-08T13:18:24.830Z,15.90
2022-12-08T13:20:56.280Z,15.90
2022-12-08T13:23:31.506Z,15.80
2022-12-08T13:26:16.057Z,15.90
2022-12-08T13:29:24.015Z,15.80
2022-12-08T13:31:55.405Z,15.80
2022-12-08T13:34:31.374Z,15.90
2022-12-08T13:37:08.741Z,15.90
2022-12-08T13:39:44.721Z,15.90
2022-12-08T13:42:22.610Z,15.90
2022-12-08T13:52:33.030Z,15.90
2022-12-08T13:57:05.200Z,15.80
2022-12-08T13:59:30.444Z,15.80
2022-12-08T14:02:02.515Z,15.80
2022-12-08T14:07:20.998Z,15.80
2022-12-08T14:09:49.637Z,15.70
2022-12-08T14:12:21.849Z,15.70
2022-12-08T14:15:08.556Z,15.80
2022-12-08T14:17:36.849Z,15.80
2022-12-08T14:20:20.740Z,15.80
2022-12-08T14:22:51.322Z,15.70
2022-12-08T14:25:21.036Z,15.70
2022-12-08T14:27:50.182Z,15.70
2022-12-08T14:30:22.255Z,15.70
2022-12-08T14:32:52.037Z,15.70
2022-12-08T14:35:25.697Z,15.70
2022-12-08T14:37:57.398Z,15.60
2022-12-08T14:40:30.507Z,15.70
2022-12-08T14:43:14.037Z,15.60
2022-12-08T14:45:53.429Z,15.60
2022-12-08T14:48:25.613Z,15.60
2022-12-08T14:51:02.450Z,15.60
2022-12-08T14:53:36.877Z,15.60
2022-12-08T14:56:09.403Z,15.60
2022-12-08T14:58:37.664Z,15.60
2022-12-08T15:01:10.467Z,15.60
2022-12-08T15:03:38.968Z,15.60
2022-12-08T15:06:09.907Z,15.60
2022-12-08T15:08:53.719Z,15.60
2022-12-08T15:11:36.884Z,15.50
2022-12-08T15:14:05.379Z,15.50
2022-12-08T15:16:41.192Z,15.50
2022-12-08T15:19:27.764Z,15.50
2022-12-08T15:21:59.336Z,15.50
2022-12-08T15:24:31.814Z,15.50
2022-12-08T15:27:00.124Z,15.50
2022-12-08T15:29:30.093Z,15.50
2022-12-08T15:32:00.239Z,15.50
2022-12-08T15:34:28.853Z,15.40
2022-12-08T15:36:58.588Z,15.40
2022-12-08T15:39:34.980Z,15.50
2022-12-08T15:42:04.322Z,15.50
2022-12-08T15:44:33.092Z,15.40
2022-12-08T15:47:01.961Z,15.40
2022-12-08T15:49:30.253Z,15.40
2022-12-08T15:52:10.655Z,15.40
2022-12-08T15:54:39.884Z,15.40
2022-12-08T15:57:20.419Z,15.40
2022-12-08T15:59:54.020Z,15.30
2022-12-08T16:02:23.208Z,15.40
2022-12-08T16:05:40.213Z,15.40
2022-12-08T16:07:43.405Z,15.30
2022-12-08T16:10:18.257Z,15.30
2022-12-08T16:16:00.483Z,15.30
2022-12-08T16:18:31.512Z,15.30
2022-12-08T16:21:16.933Z,15.30
2022-12-08T16:23:50.137Z,15.30
2022-12-08T16:27:50.600Z,15.30
2022-12-08T16:29:09.209Z,15.20
2022-12-08T16:31:38.053Z,15.30
2022-12-08T16:34:06.357Z,15.20
2022-12-08T16:36:34.714Z,15.20
2022-12-08T16:39:04.560Z,15.20
2022-12-08T16:41:50.343Z,15.20
2022-12-08T16:44:18.616Z,15.20
2022-12-08T16:46:46.971Z,15.20
2022-12-08T16:49:15.728Z,15.20
2022-12-08T16:51:44.882Z,15.20
2022-12-08T16:54:14.606Z,15.20
2022-12-08T16:56:42.944Z,15.20
2022-12-08T16:59:11.205Z,15.20
2022-12-08T17:01:39.543Z,15.10
2022-12-08T17:04:30.560Z,15.20
2022-12-08T17:06:56.269Z,15.20
2022-12-08T17:09:26.134Z,15.10
2022-12-08T17:11:58.806Z,15.20
2022-12-08T17:14:30.200Z,15.20
2022-12-08T17:16:58.531Z,15.10
2022-12-08T17:19:27.030Z,15.10
2022-12-08T17:21:55.322Z,15.10
2022-12-08T17:24:25.098Z,15.10
2022-12-08T17:26:54.775Z,15.10
2022-12-08T17:29:23.233Z,15.10
2022-12-08T17:31:52.079Z,15.10
2022-12-08T17:34:20.366Z,15.10
2022-12-08T17:36:48.632Z,15.10
2022-12-08T17:39:18.997Z,15.10
2022-12-08T17:41:48.192Z,15.00
2022-12-08T17:44:19.710Z,15.10
2022-12-08T17:46:52.598Z,15.10
2022-12-08T17:49:23.631Z,15.10
2022-12-08T17:51:53.127Z,15.10
2022-12-08T17:54:21.745Z,15.10
2022-12-08T17:56:50.030Z,15.10
2022-12-08T17:59:20.009Z,15.10
2022-12-08T18:01:48.332Z,15.10
2022-12-08T18:04:16.833Z,15.10
2022-12-08T18:06:45.146Z,15.10
2022-12-08T18:09:13.609Z,15.10
2022-12-08T18:11:42.169Z,15.10
2022-12-08T18:14:12.020Z,15.00
2022-12-08T18:16:43.761Z,15.10
2022-12-08T18:19:12.770Z,15.10
2022-12-08T18:21:41.656Z,15.00
2022-12-08T18:24:15.433Z,15.00
2022-12-08T18:26:43.711Z,15.00
2022-12-08T18:29:12.047Z,15.10
2022-12-08T18:31:41.705Z,15.00
2022-12-08T18:34:10.150Z,15.10
2022-12-08T18:36:38.421Z,15.10
2022-12-08T18:39:10.746Z,15.10
2022-12-08T18:41:39.452Z,15.10
2022-12-08T18:44:07.682Z,15.10
2022-12-08T18:46:36.007Z,15.10
2022-12-08T18:49:05.695Z,15.10
2022-12-08T18:51:33.938Z,15.10
2022-12-08T18:54:02.171Z,15.00
2022-12-08T18:56:31.968Z,15.00
2022-12-08T18:59:03.954Z,15.10
2022-12-08T19:01:32.921Z,15.10
2022-12-08T19:06:51.874Z,15.10
2022-12-08T19:09:21.026Z,15.10
2022-12-08T19:11:49.394Z,15.10
2022-12-08T19:14:21.239Z,15.10
2022-12-08T19:16:52.729Z,15.10
2022-12-08T19:19:21.630Z,15.10
2022-12-08T19:21:51.759Z,15.00
2022-12-08T19:24:20.094Z,15.10
2022-12-08T19:26:48.398Z,15.00
2022-12-08T19:29:16.859Z,15.00
2022-12-08T19:31:46.235Z,15.00
2022-12-08T19:34:15.341Z,15.00
2022-12-08T19:36:44.174Z,15.00
2022-12-08T19:39:36.760Z,15.00
2022-12-08T19:42:24.662Z,15.00
2022-12-08T19:44:55.526Z,15.00
2022-12-08T19:47:25.972Z,15.00
2022-12-08T19:50:15.904Z,15.00
2022-12-08T19:52:44.890Z,15.00
2022-12-08T19:55:14.759Z,15.00
2022-12-08T19:57:43.252Z,14.90
2022-12-08T20:00:13.985Z,15.00
2022-12-08T20:02:42.409Z,15.00
2022-12-08T20:05:12.577Z,15.00
2022-12-08T20:07:41.261Z,14.90
2022-12-08T20:10:15.575Z,15.00
2022-12-08T20:12:45.295Z,15.00
2022-12-08T20:15:14.907Z,15.00
2022-12-08T20:17:43.688Z,15.00
2022-12-08T20:20:14.845Z,15.00
2022-12-08T20:22:45.184Z,15.00
2022-12-08T20:25:13.713Z,15.00
2022-12-08T20:27:42.571Z,14.90
2022-12-08T20:30:17.027Z,14.90
2022-12-08T20:32:46.031Z,15.00
2022-12-08T20:35:14.313Z,15.00
2022-12-08T20:37:42.927Z,14.90
2022-12-08T20:40:12.181Z,14.90
2022-12-08T20:42:40.492Z,14.90
2022-12-08T20:45:10.058Z,14.90
2022-12-08T20:47:40.118Z,14.90
2022-12-08T20:50:10.113Z,14.90
2022-12-08T20:52:39.027Z,14.90
2022-12-08T20:55:09.089Z,14.90
2022-12-08T20:57:37.676Z,14.90
2022-12-08T21:00:07.715Z,14.90
2022-12-08T21:02:37.619Z,14.90
2022-12-08T21:05:10.416Z,14.90
2022-12-08T21:07:38.970Z,14.90
2022-12-08T21:10:09.587Z,14.90
2022-12-08T21:12:38.295Z,14.90
2022-12-08T21:15:08.448Z,14.90
2022-12-08T21:17:36.934Z,14.90
2022-12-08T21:20:07.282Z,14.90
2022-12-08T21:22:37.768Z,14.90
2022-12-08T21:25:07.298Z,14.90
2022-12-08T21:27:35.554Z,14.90
2022-12-08T21:30:04.204Z,14.90
2022-12-08T21:32:32.879Z,14.90
2022-12-08T21:35:01.279Z,14.90
2022-12-08T21:37:30.184Z,14.90
2022-12-08T21:39:59.953Z,14.90
2022-12-08T21:42:46.400Z,14.80
2022-12-08T21:45:18.044Z,14.80
2022-12-08T21:47:47.628Z,14.80
2022-12-08T21:50:17.296Z,14.80
2022-12-08T21:52:47.942Z,14.80
2022-12-08T21:55:20.436Z,14.80
2022-12-08T21:57:48.855Z,14.80
2022-12-08T22:00:18.897Z,14.80
2022-12-08T22:02:47.886Z,14.80
2022-12-08T22:05:16.500Z,14.80
2022-12-08T22:07:45.050Z,14.80
2022-12-08T22:10:13.747Z,14.80
2022-12-08T22:12:43.578Z,14.80
2022-12-08T22:15:12.767Z,14.70
2022-12-08T22:17:43.583Z,14.80
2022-12-08T22:20:14.594Z,14.80
2022-12-08T22:22:43.100Z,14.80
2022-12-08T22:25:13.133Z,14.80
2022-12-08T22:27:43.197Z,14.80
2022-12-08T22:30:12.422Z,14.80
2022-12-08T22:32:42.014Z,14.70
2022-12-08T22:35:11.729Z,14.70
2022-12-08T22:37:40.096Z,14.70
2022-12-08T22:40:10.168Z,14.80
2022-12-08T22:42:39.106Z,14.70
2022-12-08T22:45:10.473Z,14.70
2022-12-08T22:47:38.882Z,14.70
2022-12-08T22:50:08.999Z,14.70
2022-12-08T22:52:37.764Z,14.70
2022-12-08T22:55:07.463Z,14.70
2022-12-08T22:57:35.961Z,14.70
2022-12-08T23:00:06.027Z,14.70
2022-12-08T23:02:38.233Z,14.70
2022-12-08T23:05:07.953Z,14.70
2022-12-08T23:07:36.466Z,14.70
2022-12-08T23:10:05.903Z,14.80
2022-12-08T23:12:34.902Z,14.70
2022-12-08T23:15:03.576Z,14.70
2022-12-08T23:17:31.994Z,14.70
2022-12-08T23:20:01.809Z,14.70
2022-12-08T23:22:30.106Z,14.70
2022-12-08T23:24:58.396Z,14.70
2022-12-08T23:27:26.684Z,14.70
2022-12-08T23:29:54.969Z,14.70
2022-12-08T23:32:23.334Z,14.80
2022-12-08T23:34:51.914Z,14.70
2022-12-08T23:37:21.547Z,14.80
2022-12-08T23:39:49.805Z,14.80
2022-12-08T23:42:18.171Z,14.70
2022-12-08T23:44:46.428Z,14.80
2022-12-08T23:47:14.774Z,14.80
2022-12-08T23:49:43.090Z,14.80
2022-12-08T23:52:13.866Z,14.80
2022-12-08T23:54:44.637Z,14.80
2022-12-08T23:57:12.932Z,14.80
2022-12-08T23:59:41.322Z,14.80
